createdAt,value
2023-03-17T00:00:02.565Z,99541.55
2023-03-17T00:03:27.752Z,99539.70
2023-03-17T00:06:45.370Z,99534.86
2023-03-17T00:10:02.714Z,99534.03
2023-03-17T00:13:21.297Z,99528.89
2023-03-17T00:19:54.259Z,99532.81
2023-03-17T00:23:11.395Z,99522.95
2023-03-17T00:26:27.778Z,99525.72
2023-03-17T00:29:44.651Z,99526.64
2023-03-17T00:33:03.882Z,99523.12
2023-03-17T00:36:23.324Z,99523.57
2023-03-17T00:39:39.785Z,99529.61
2023-03-17T00:42:56.717Z,99523.84
2023-03-17T00:46:20.773Z,99530.00
2023-03-17T00:49:37.336Z,99525.88
2023-03-17T00:52:55.034Z,99526.13
2023-03-17T00:56:16.497Z,99529.69
2023-03-17T00:59:38.863Z,99525.50
2023-03-17T01:02:57.776Z,99521.22
2023-03-17T01:06:18.486Z,99516.14
2023-03-17T01:09:37.295Z,99520.42
2023-03-17T01:12:53.889Z,99516.14
2023-03-17T01:16:11.455Z,99523.13
2023-03-17T01:19:27.563Z,99522.62
2023-03-17T01:22:44.666Z,99523.95
2023-03-17T01:26:01.491Z,99519.41
2023-03-17T01:29:18.356Z,99522.23
2023-03-17T01:32:34.590Z,99520.77
2023-03-17T01:35:52.328Z,99522.77
2023-03-17T01:39:08.710Z,99523.03
2023-03-17T01:42:24.882Z,99520.27
2023-03-17T01:46:23.875Z,99510.36
2023-03-17T01:49:43.958Z,99504.30
2023-03-17T01:53:00.432Z,99503.19
2023-03-17T01:56:17.645Z,99500.20
2023-03-17T01:59:40.312Z,99501.66
2023-03-17T02:02:59.790Z,99505.78
2023-03-17T02:06:17.748Z,99498.57
2023-03-17T02:09:35.546Z,99494.95
2023-03-17T02:12:54.045Z,99491.19
2023-03-17T02:16:11.511Z,99485.75
2023-03-17T02:19:28.152Z,99488.33
2023-03-17T02:22:45.406Z,99483.70
2023-03-17T02:26:04.839Z,99479.23
2023-03-17T02:29:22.043Z,99489.03
2023-03-17T02:32:39.931Z,99487.35
2023-03-17T02:35:57.322Z,99481.48
2023-03-17T02:39:14.524Z,99482.59
2023-03-17T02:42:30.906Z,99479.09
2023-03-17T02:45:47.162Z,99482.30
2023-03-17T02:49:04.581Z,99479.28
2023-03-17T02:52:22.253Z,99481.95
2023-03-17T02:55:38.499Z,99484.66
2023-03-17T02:58:54.881Z,99482.23
2023-03-17T03:02:12.318Z,99484.83
2023-03-17T03:05:30.134Z,99490.09
2023-03-17T03:08:46.927Z,99484.30
2023-03-17T03:12:03.113Z,99484.06
2023-03-17T03:15:21.713Z,99483.98
2023-03-17T03:18:38.865Z,99483.15
2023-03-17T03:21:54.911Z,99480.89
2023-03-17T03:25:11.750Z,99493.98
2023-03-17T03:28:27.926Z,99491.39
2023-03-17T03:31:44.299Z,99485.76
2023-03-17T03:35:00.629Z,99486.52
2023-03-17T03:38:16.936Z,99490.28
2023-03-17T03:41:32.993Z,99488.20
2023-03-17T03:44:49.346Z,99487.26
2023-03-17T03:48:06.882Z,99469.39
2023-03-17T03:51:24.561Z,99455.20
2023-03-17T03:54:40.601Z,99462.66
2023-03-17T03:57:56.815Z,99468.25
2023-03-17T04:01:15.879Z,99486.05
2023-03-17T04:04:32.362Z,99483.61
2023-03-17T04:07:49.154Z,99483.70
2023-03-17T04:11:06.248Z,99491.28
2023-03-17T04:14:24.504Z,99489.16
2023-03-17T04:17:41.934Z,99494.55
2023-03-17T04:20:58.089Z,99500.39
2023-03-17T04:24:17.788Z,99485.20
2023-03-17T04:27:33.961Z,99483.36
2023-03-17T04:30:53.028Z,99479.83
2023-03-17T04:34:09.895Z,99486.46
2023-03-17T04:37:28.967Z,99491.97
2023-03-17T04:40:45.078Z,99493.80
2023-03-17T04:44:01.049Z,99485.42
2023-03-17T04:47:17.796Z,99492.30
2023-03-17T04:50:34.181Z,99498.42
2023-03-17T04:53:50.269Z,99499.44
2023-03-17T04:57:06.796Z,99489.36
2023-03-17T05:00:25.051Z,99482.15
2023-03-17T05:03:41.778Z,99478.45
2023-03-17T05:06:59.134Z,99489.75
2023-03-17T05:10:17.845Z,99483.38
2023-03-17T05:13:35.997Z,99482.27
2023-03-17T05:16:54.173Z,99483.95
2023-03-17T05:20:14.871Z,99481.92
2023-03-17T05:23:31.352Z,99492.43
2023-03-17T05:26:47.552Z,99485.20
2023-03-17T05:30:19.196Z,99493.48
2023-03-17T05:33:35.526Z,99502.63
2023-03-17T05:36:52.505Z,99495.48
2023-03-17T05:40:09.463Z,99507.98
2023-03-17T05:43:25.485Z,99514.13
2023-03-17T05:46:41.864Z,99516.17
2023-03-17T05:49:58.070Z,99513.50
2023-03-17T05:53:14.359Z,99516.12
2023-03-17T05:56:33.688Z,99504.31
2023-03-17T05:59:53.195Z,99505.70
2023-03-17T06:03:09.545Z,99509.00
2023-03-17T06:06:26.598Z,99514.52
2023-03-17T06:09:43.222Z,99530.13
2023-03-17T06:13:00.708Z,99521.55
2023-03-17T06:16:19.515Z,99525.02
2023-03-17T06:19:36.056Z,99526.80
2023-03-17T06:23:03.820Z,99528.99
2023-03-17T06:26:12.735Z,99540.52
2023-03-17T06:29:31.018Z,99538.19
2023-03-17T06:32:48.497Z,99531.14
2023-03-17T06:36:05.114Z,99537.66
2023-03-17T06:39:23.779Z,99548.58
2023-03-17T06:42:40.091Z,99559.24
2023-03-17T06:45:56.647Z,99540.04
2023-03-17T06:49:14.408Z,99549.55
2023-03-17T06:52:32.906Z,99553.03
2023-03-17T06:55:49.290Z,99559.09
2023-03-17T06:59:05.713Z,99562.80
2023-03-17T07:02:22.058Z,99553.86
2023-03-17T07:05:45.057Z,99563.03
2023-03-17T07:09:02.371Z,99573.31
2023-03-17T07:12:19.463Z,99567.10
2023-03-17T07:15:38.974Z,99565.11
2023-03-17T07:18:57.473Z,99570.81
2023-03-17T07:22:15.560Z,99568.55
2023-03-17T07:25:32.080Z,99563.50
2023-03-17T07:28:48.912Z,99555.25
2023-03-17T07:32:06.253Z,99551.57
2023-03-17T07:35:23.510Z,99561.18
2023-03-17T07:38:39.648Z,99557.91
2023-03-17T07:41:56.554Z,99558.89
2023-03-17T07:45:15.676Z,99551.50
2023-03-17T07:48:34.087Z,99552.46
2023-03-17T07:51:50.125Z,99556.64
2023-03-17T07:55:10.612Z,99550.31
2023-03-17T07:58:27.553Z,99563.97
2023-03-17T08:01:47.064Z,99562.55
2023-03-17T08:05:03.990Z,99560.01
2023-03-17T08:08:22.087Z,99556.95
2023-03-17T08:11:38.592Z,99560.47
2023-03-17T08:14:56.137Z,99558.48
2023-03-17T08:18:14.338Z,99558.84
2023-03-17T08:21:31.740Z,99552.52
2023-03-17T08:24:47.647Z,99556.50
2023-03-17T08:28:05.420Z,99552.48
2023-03-17T08:31:24.580Z,99552.09
2023-03-17T08:34:52.392Z,99544.92
2023-03-17T08:38:10.659Z,99543.17
2023-03-17T08:41:30.198Z,99550.17
2023-03-17T08:44:48.216Z,99557.91
2023-03-17T08:48:05.020Z,99551.30
2023-03-17T08:51:24.292Z,99544.73
2023-03-17T08:54:40.066Z,99544.33
2023-03-17T08:57:56.360Z,99549.73
2023-03-17T09:01:15.409Z,99544.14
2023-03-17T09:04:31.686Z,99542.02
2023-03-17T09:07:49.768Z,99550.98
2023-03-17T09:11:06.521Z,99544.31
2023-03-17T09:14:25.184Z,99541.20
2023-03-17T09:17:42.215Z,99546.19
2023-03-17T09:20:58.732Z,99534.62
2023-03-17T09:24:17.753Z,99538.70
2023-03-17T09:27:34.123Z,99520.05
2023-03-17T09:30:52.500Z,99533.31
2023-03-17T09:34:10.027Z,99535.16
2023-03-17T09:37:26.962Z,99534.73
2023-03-17T09:40:51.420Z,99525.17
2023-03-17T09:44:14.432Z,99520.99
2023-03-17T09:48:12.814Z,99527.39
2023-03-17T09:51:29.790Z,99516.34
2023-03-17T09:54:47.322Z,99516.16
2023-03-17T09:58:05.953Z,99519.60
2023-03-17T10:01:23.525Z,99508.98
2023-03-17T10:04:43.588Z,99500.55
2023-03-17T10:08:29.014Z,99487.68
2023-03-17T10:11:39.204Z,99487.11
2023-03-17T10:15:07.618Z,99473.09
2023-03-17T10:18:28.485Z,99483.64
2023-03-17T10:21:50.649Z,99468.05
2023-03-17T10:25:11.571Z,99462.84
2023-03-17T10:28:39.562Z,99470.05
2023-03-17T10:31:58.405Z,99469.55
2023-03-17T10:35:18.809Z,99464.62
2023-03-17T10:38:35.120Z,99464.88
2023-03-17T10:42:02.325Z,99452.17
2023-03-17T10:45:26.921Z,99454.90
2023-03-17T10:48:46.341Z,99456.99
2023-03-17T10:52:03.439Z,99443.97
2023-03-17T10:55:27.272Z,99431.24
2023-03-17T10:58:55.719Z,99443.21
2023-03-17T11:02:24.292Z,99426.45
2023-03-17T11:05:41.201Z,99420.31
2023-03-17T11:09:02.446Z,99425.08
2023-03-17T11:12:33.592Z,99415.38
2023-03-17T11:15:57.338Z,99413.19
2023-03-17T11:19:17.872Z,99417.54
2023-03-17T11:22:40.911Z,99419.11
2023-03-17T11:26:04.340Z,99415.53
2023-03-17T11:29:33.370Z,99410.02
2023-03-17T11:32:55.720Z,99405.42
2023-03-17T11:36:23.079Z,99400.98
2023-03-17T11:39:50.196Z,99401.03
2023-03-17T11:43:19.282Z,99397.47
2023-03-17T11:46:39.435Z,99385.30
2023-03-17T11:50:04.153Z,99384.02
2023-03-17T11:53:32.242Z,99359.42
2023-03-17T11:56:55.486Z,99357.22
2023-03-17T12:00:21.500Z,99353.28
2023-03-17T12:03:46.184Z,99349.06
2023-03-17T12:07:11.477Z,99353.19
2023-03-17T12:10:32.118Z,99340.64
2023-03-17T12:13:52.414Z,99335.88
2023-03-17T12:20:28.806Z,99320.59
2023-03-17T12:23:51.612Z,99327.26
2023-03-17T12:27:13.495Z,99328.77
2023-03-17T12:30:37.912Z,99319.34
2023-03-17T12:34:05.782Z,99325.50
2023-03-17T12:37:23.460Z,99318.73
2023-03-17T12:40:48.097Z,99311.05
2023-03-17T12:44:15.056Z,99312.45
2023-03-17T12:48:03.174Z,99298.36
2023-03-17T12:51:42.091Z,99303.44
2023-03-17T12:55:03.208Z,99304.55
2023-03-17T12:58:37.169Z,99299.38
2023-03-17T13:02:00.752Z,99294.41
2023-03-17T13:05:27.858Z,99279.67
2023-03-17T13:08:48.155Z,99279.80
2023-03-17T13:12:05.721Z,99259.75
2023-03-17T13:15:51.861Z,99277.02
2023-03-17T13:19:25.567Z,99280.17
2023-03-17T13:22:56.300Z,99279.20
2023-03-17T13:26:22.709Z,99269.48
2023-03-17T13:29:56.470Z,99273.81
2023-03-17T13:33:42.816Z,99254.21
2023-03-17T13:37:10.703Z,99264.19
2023-03-17T13:40:31.544Z,99259.19
2023-03-17T13:44:23.760Z,99268.14
2023-03-17T13:47:46.625Z,99256.86
2023-03-17T13:51:11.658Z,99257.91
2023-03-17T13:54:40.025Z,99249.27
2023-03-17T13:58:04.880Z,99259.02
2023-03-17T14:01:23.326Z,99246.44
2023-03-17T14:04:45.631Z,99237.67
2023-03-17T14:08:07.233Z,99233.53
2023-03-17T14:11:34.776Z,99228.06
2023-03-17T14:15:03.413Z,99238.00
2023-03-17T14:18:24.114Z,99230.89
2023-03-17T14:21:46.131Z,99218.95
2023-03-17T14:25:08.906Z,99212.98
2023-03-17T14:28:32.624Z,99212.16
2023-03-17T14:31:51.480Z,99205.20
2023-03-17T14:35:09.239Z,99210.83
2023-03-17T14:38:27.416Z,99207.54
2023-03-17T14:41:44.204Z,99205.70
2023-03-17T14:46:04.579Z,99193.30
2023-03-17T14:49:29.133Z,99199.41
2023-03-17T14:52:46.684Z,99191.45
2023-03-17T14:56:05.169Z,99197.11
2023-03-17T14:59:34.336Z,99195.28
2023-03-17T15:03:01.372Z,99186.33
2023-03-17T15:06:35.693Z,99182.20
2023-03-17T15:09:52.655Z,99186.66
2023-03-17T15:13:17.453Z,99166.62
2023-03-17T15:16:37.720Z,99166.30
2023-03-17T15:19:58.048Z,99173.40
2023-03-17T15:23:25.934Z,99170.11
2023-03-17T15:26:45.059Z,99157.19
2023-03-17T15:30:01.338Z,99156.69
2023-03-17T15:33:38.349Z,99147.58
2023-03-17T15:36:56.095Z,99158.35
2023-03-17T15:40:16.733Z,99142.80
2023-03-17T15:43:35.481Z,99141.82
2023-03-17T15:46:55.301Z,99140.98
2023-03-17T15:50:24.848Z,99148.11
2023-03-17T15:53:42.740Z,99155.25
2023-03-17T15:57:01.387Z,99151.44
2023-03-17T16:00:30.387Z,99143.84
2023-03-17T16:03:48.074Z,99134.41
2023-03-17T16:07:04.374Z,99133.74
2023-03-17T16:10:27.638Z,99129.61
2023-03-17T16:13:43.906Z,99133.56
2023-03-17T16:17:00.240Z,99126.14
2023-03-17T16:20:26.910Z,99125.83
2023-03-17T16:23:44.569Z,99114.88
2023-03-17T16:27:00.724Z,99119.86
2023-03-17T16:30:22.935Z,99115.91
2023-03-17T16:33:44.554Z,99109.78
2023-03-17T16:37:00.826Z,99117.73
2023-03-17T16:40:28.608Z,99127.15
2023-03-17T16:43:45.976Z,99128.48
2023-03-17T16:47:04.723Z,99129.16
2023-03-17T16:50:26.874Z,99124.01
2023-03-17T16:53:43.264Z,99125.98
2023-03-17T16:56:59.681Z,99125.16
2023-03-17T17:00:23.123Z,99130.12
2023-03-17T17:03:39.665Z,99116.22
2023-03-17T17:06:56.558Z,99121.17
2023-03-17T17:10:13.587Z,99121.00
2023-03-17T17:13:29.688Z,99127.25
2023-03-17T17:16:47.778Z,99120.77
2023-03-17T17:20:04.058Z,99125.88
2023-03-17T17:23:25.051Z,99122.73
2023-03-17T17:26:41.153Z,99124.16
2023-03-17T17:29:57.362Z,99134.55
2023-03-17T17:33:14.139Z,99128.58
2023-03-17T17:36:32.083Z,99134.83
2023-03-17T17:39:48.148Z,99135.46
2023-03-17T17:43:04.885Z,99136.91
2023-03-17T17:46:24.507Z,99129.77
2023-03-17T17:49:40.678Z,99138.00
2023-03-17T17:52:58.572Z,99135.33
2023-03-17T17:56:17.862Z,99134.13
2023-03-17T17:59:34.801Z,99137.39
2023-03-17T18:02:51.149Z,99132.20
2023-03-17T18:06:08.004Z,99141.14
2023-03-17T18:09:24.949Z,99136.31
2023-03-17T18:12:41.293Z,99130.96
2023-03-17T18:15:57.849Z,99131.90
2023-03-17T18:19:17.016Z,99131.82
2023-03-17T18:22:34.398Z,99123.02
2023-03-17T18:25:50.683Z,99129.50
2023-03-17T18:29:07.623Z,99125.15
2023-03-17T18:32:25.663Z,99132.00
2023-03-17T18:35:45.652Z,99131.78
2023-03-17T18:39:02.374Z,99128.30
2023-03-17T18:42:19.194Z,99128.62
2023-03-17T18:45:35.994Z,99134.02
2023-03-17T18:48:52.165Z,99133.20
2023-03-17T18:52:08.730Z,99125.20
2023-03-17T18:55:27.608Z,99125.07
2023-03-17T18:58:43.661Z,99119.11
2023-03-17T19:02:01.287Z,99115.41
2023-03-17T19:05:21.145Z,99117.81
2023-03-17T19:08:37.984Z,99117.88
2023-03-17T19:11:54.246Z,99125.39
2023-03-17T19:15:13.358Z,99111.04
2023-03-17T19:18:29.962Z,99106.51
2023-03-17T19:21:49.156Z,99095.05
2023-03-17T19:25:05.856Z,99100.66
2023-03-17T19:28:24.515Z,99099.42
2023-03-17T19:31:42.361Z,99102.20
2023-03-17T19:34:58.964Z,99095.73
2023-03-17T19:38:15.338Z,99105.73
2023-03-17T19:41:33.152Z,99093.15
2023-03-17T19:44:50.835Z,99097.31
2023-03-17T19:48:10.553Z,99100.52
2023-03-17T19:51:27.858Z,99089.29
2023-03-17T19:54:46.794Z,99094.30
2023-03-17T19:58:04.910Z,99086.82
2023-03-17T20:01:23.080Z,99091.53
2023-03-17T20:04:39.571Z,99087.53
2023-03-17T20:07:56.684Z,99085.05
2023-03-17T20:11:14.384Z,99089.76
2023-03-17T20:14:30.815Z,99088.09
2023-03-17T20:17:52.177Z,99091.98
2023-03-17T20:21:11.194Z,99087.69
2023-03-17T20:24:29.475Z,99087.42
2023-03-17T20:27:46.663Z,99081.06
2023-03-17T20:31:08.801Z,99084.39
2023-03-17T20:34:27.299Z,99082.16
2023-03-17T20:37:47.475Z,99084.64
2023-03-17T20:41:11.579Z,99075.53
2023-03-17T20:44:29.216Z,99068.30
2023-03-17T20:47:47.084Z,99075.52
2023-03-17T20:51:07.243Z,99072.33
2023-03-17T20:54:28.569Z,99074.39
2023-03-17T20:57:52.252Z,99078.67
2023-03-17T21:01:08.836Z,99080.20
2023-03-17T21:04:25.610Z,99069.83
2023-03-17T21:07:42.922Z,99071.33
2023-03-17T21:10:59.184Z,99068.00
2023-03-17T21:14:15.649Z,99069.95
2023-03-17T21:17:35.729Z,99071.05
2023-03-17T21:20:52.787Z,99073.94
2023-03-17T21:24:09.187Z,99062.19
2023-03-17T21:27:26.023Z,99065.89
2023-03-17T21:30:43.165Z,99065.33
2023-03-17T21:33:59.316Z,99059.08
2023-03-17T21:37:16.827Z,99062.77
2023-03-17T21:40:33.776Z,99055.03
2023-03-17T21:43:52.958Z,99058.33
2023-03-17T21:47:10.176Z,99064.11
2023-03-17T21:50:26.731Z,99055.81
2023-03-17T21:53:42.984Z,99056.47
2023-03-17T21:57:02.496Z,99058.52
2023-03-17T22:00:21.221Z,99055.19
2023-03-17T22:03:38.188Z,99063.91
2023-03-17T22:06:54.810Z,99063.72
2023-03-17T22:10:12.650Z,99054.19
2023-03-17T22:13:29.007Z,99059.84
2023-03-17T22:16:45.273Z,99054.13
2023-03-17T22:20:07.405Z,99058.50
2023-03-17T22:23:23.564Z,99065.55
2023-03-17T22:26:39.720Z,99060.30
2023-03-17T22:29:56.404Z,99055.16
2023-03-17T22:33:13.620Z,99058.64
2023-03-17T22:36:30.528Z,99059.86
2023-03-17T22:39:46.741Z,99056.53
2023-03-17T22:43:04.913Z,99049.04
2023-03-17T22:46:22.491Z,99055.23
2023-03-17T22:49:39.087Z,99047.27
2023-03-17T22:52:55.652Z,99046.93
2023-03-17T22:56:13.806Z,99048.91
2023-03-17T22:59:30.192Z,99048.91
2023-03-17T23:02:46.828Z,99046.86
2023-03-17T23:06:05.640Z,99053.70
2023-03-17T23:09:21.869Z,99042.46
2023-03-17T23:12:38.796Z,99046.62
2023-03-17T23:15:55.263Z,99052.17
2023-03-17T23:19:11.392Z,99047.78
2023-03-17T23:22:27.511Z,99049.55
2023-03-17T23:25:44.299Z,99053.39
2023-03-17T23:29:00.643Z,99051.41
2023-03-17T23:32:18.885Z,99050.95
2023-03-17T23:35:36.703Z,99052.59
2023-03-17T23:38:54.645Z,99056.06
2023-03-17T23:42:12.008Z,99053.77
2023-03-17T23:45:28.633Z,99051.86
2023-03-17T23:48:45.322Z,99048.39
2023-03-17T23:52:02.604Z,99039.84
2023-03-17T23:55:22.653Z,99032.80
2023-03-17T23:58:38.754Z,99026.66
